createdAt,value
2019-04-03T00:01:09.282Z,12.11
2019-04-03T00:03:37.684Z,12.08
2019-04-03T00:06:06.127Z,12.08
2019-04-03T00:08:36.274Z,12.03
2019-04-03T00:11:04.868Z,12.00
2019-04-03T00:13:33.334Z,11.98
2019-04-03T00:16:01.792Z,11.91
2019-04-03T00:18:30.033Z,11.85
2019-04-03T00:20:58.486Z,11.79
2019-04-03T00:23:26.727Z,11.72
2019-04-03T00:25:54.965Z,11.66
2019-04-03T00:28:23.433Z,11.61
2019-04-03T00:30:52.906Z,11.56
2019-04-03T00:33:22.986Z,11.52
2019-04-03T00:35:53.672Z,11.46
2019-04-03T00:38:23.979Z,11.41
2019-04-03T00:40:53.881Z,11.36
2019-04-03T00:43:24.352Z,11.29
2019-04-03T00:45:54.040Z,11.22
2019-04-03T00:48:22.071Z,11.15
2019-04-03T00:50:50.290Z,11.05
2019-04-03T00:53:18.669Z,10.98
2019-04-03T00:55:46.834Z,10.90
2019-04-03T00:58:36.367Z,10.82
2019-04-03T01:01:06.537Z,10.75
2019-04-03T01:03:35.008Z,10.69
2019-04-03T01:06:03.236Z,10.62
2019-04-03T01:08:31.719Z,10.57
2019-04-03T01:11:00.432Z,10.51
2019-04-03T01:13:31.003Z,10.47
2019-04-03T01:15:59.104Z,10.44
2019-04-03T01:18:27.328Z,10.45
2019-04-03T01:20:55.788Z,10.48
2019-04-03T01:23:24.026Z,10.55
2019-04-03T01:25:52.389Z,10.67
2019-04-03T01:28:20.686Z,10.76
2019-04-03T01:30:49.105Z,10.86
2019-04-03T01:33:17.356Z,10.96
2019-04-03T01:35:47.130Z,11.03
2019-04-03T01:38:15.592Z,11.09
2019-04-03T01:40:43.826Z,11.15
2019-04-03T01:43:12.418Z,11.19
2019-04-03T01:45:40.825Z,11.21
2019-04-03T01:48:09.893Z,11.24
2019-04-03T01:50:38.427Z,11.24
2019-04-03T01:53:06.885Z,11.24
2019-04-03T01:55:35.212Z,11.25
2019-04-03T01:58:06.302Z,11.26
2019-04-03T02:00:33.619Z,11.24
2019-04-03T02:03:02.481Z,11.24
2019-04-03T02:05:30.919Z,11.25
2019-04-03T02:07:59.519Z,11.23
2019-04-03T02:10:27.977Z,11.22
2019-04-03T02:12:56.432Z,11.22
2019-04-03T02:15:24.672Z,11.24
2019-04-03T02:17:55.109Z,11.25
2019-04-03T02:20:22.970Z,11.29
2019-04-03T02:22:51.183Z,11.30
2019-04-03T02:25:19.658Z,11.32
2019-04-03T02:27:48.090Z,11.34
2019-04-03T02:30:16.501Z,11.35
2019-04-03T02:32:44.955Z,11.35
2019-04-03T02:35:13.270Z,11.35
2019-04-03T02:37:41.743Z,11.36
2019-04-03T02:40:10.421Z,11.39
2019-04-03T02:42:41.570Z,11.40
2019-04-03T02:45:09.061Z,11.40
2019-04-03T02:47:37.309Z,11.41
2019-04-03T02:50:05.819Z,11.39
2019-04-03T02:52:34.119Z,11.36
2019-04-03T02:55:02.508Z,11.34
2019-04-03T02:57:32.328Z,11.30
2019-04-03T03:00:01.094Z,11.27
2019-04-03T03:02:29.289Z,11.24
2019-04-03T03:04:57.529Z,11.21
2019-04-03T03:07:25.991Z,11.21
2019-04-03T03:09:54.841Z,11.22
2019-04-03T03:12:25.208Z,11.21
2019-04-03T03:14:53.837Z,11.20
2019-04-03T03:17:23.530Z,11.19
2019-04-03T03:19:52.174Z,11.22
2019-04-03T03:22:20.943Z,11.22
2019-04-03T03:24:49.828Z,11.25
2019-04-03T03:27:18.421Z,11.22
2019-04-03T03:29:46.732Z,11.21
2019-04-03T03:32:21.343Z,11.21
2019-04-03T03:34:54.843Z,11.19
2019-04-03T03:37:15.260Z,11.15
2019-04-03T03:39:44.554Z,11.13
2019-04-03T03:42:12.960Z,11.08
2019-04-03T03:44:45.510Z,11.05
2019-04-03T03:47:11.598Z,11.02
2019-04-03T03:49:40.630Z,11.01
2019-04-03T03:52:08.927Z,10.97
2019-04-03T03:54:37.434Z,10.98
2019-04-03T03:57:07.355Z,10.98
2019-04-03T03:59:35.834Z,10.98
2019-04-03T04:02:06.362Z,10.96
2019-04-03T04:04:34.309Z,10.95
2019-04-03T04:07:04.454Z,10.93
2019-04-03T04:09:32.671Z,10.91
2019-04-03T04:12:04.365Z,10.89
2019-04-03T04:14:31.003Z,10.87
2019-04-03T04:16:59.456Z,10.86
2019-04-03T04:19:30.562Z,10.84
2019-04-03T04:21:58.097Z,10.81
2019-04-03T04:24:27.966Z,10.80
2019-04-03T04:26:56.676Z,10.78
2019-04-03T04:29:25.061Z,10.76
2019-04-03T04:31:53.596Z,10.75
2019-04-03T04:34:21.763Z,10.74
2019-04-03T04:36:50.287Z,10.73
2019-04-03T04:39:18.516Z,10.71
2019-04-03T04:41:46.943Z,10.71
2019-04-03T04:44:15.286Z,10.70
2019-04-03T04:46:44.700Z,10.70
2019-04-03T04:49:13.163Z,10.69
2019-04-03T04:51:41.410Z,10.68
2019-04-03T04:54:09.634Z,10.70
2019-04-03T04:56:38.450Z,10.71
2019-04-03T04:59:06.683Z,10.74
2019-04-03T05:01:34.925Z,10.74
2019-04-03T05:04:03.151Z,10.72
2019-04-03T05:06:31.393Z,10.70
2019-04-03T05:08:59.849Z,10.70
2019-04-03T05:11:28.316Z,10.67
2019-04-03T05:13:56.621Z,10.65
2019-04-03T05:16:25.654Z,10.63
2019-04-03T05:18:54.129Z,10.59
2019-04-03T05:21:22.746Z,10.58
2019-04-03T05:23:50.975Z,10.55
2019-04-03T05:26:21.052Z,10.55
2019-04-03T05:28:55.902Z,10.50
2019-04-03T05:31:19.794Z,10.49
2019-04-03T05:33:48.019Z,10.50
2019-04-03T05:36:17.710Z,10.52
2019-04-03T05:38:46.496Z,10.51
2019-04-03T05:41:15.018Z,10.51
2019-04-03T05:43:43.217Z,10.53
2019-04-03T05:46:11.516Z,10.53
2019-04-03T05:48:39.751Z,10.57
2019-04-03T05:51:08.014Z,10.61
2019-04-03T05:53:37.197Z,10.64
2019-04-03T05:56:06.410Z,10.64
2019-04-03T05:58:34.868Z,10.67
2019-04-03T06:01:06.214Z,10.73
2019-04-03T06:03:40.821Z,10.78
2019-04-03T06:06:03.241Z,10.82
2019-04-03T06:08:34.526Z,10.86
2019-04-03T06:11:03.699Z,10.91
2019-04-03T06:13:32.193Z,10.99
2019-04-03T06:16:00.358Z,11.05
2019-04-03T06:18:31.188Z,11.09
2019-04-03T06:20:58.783Z,11.12
2019-04-03T06:23:27.027Z,11.16
2019-04-03T06:25:55.256Z,11.20
2019-04-03T06:28:23.723Z,11.21
2019-04-03T06:30:51.952Z,11.25
2019-04-03T06:33:20.414Z,11.30
2019-04-03T06:35:48.944Z,11.28
2019-04-03T06:38:17.183Z,11.31
2019-04-03T06:40:45.410Z,11.29
2019-04-03T06:43:13.648Z,11.28
2019-04-03T06:45:43.987Z,11.27
2019-04-03T06:48:12.293Z,11.29
2019-04-03T06:50:40.524Z,11.32
2019-04-03T06:53:08.764Z,11.34
2019-04-03T06:55:37.233Z,11.33
2019-04-03T06:58:05.702Z,11.34
2019-04-03T07:00:34.679Z,11.34
2019-04-03T07:03:04.004Z,11.36
2019-04-03T07:05:32.642Z,11.39
2019-04-03T07:08:01.376Z,11.41
2019-04-03T07:10:31.526Z,11.46
2019-04-03T07:13:00.005Z,11.46
2019-04-03T07:15:28.345Z,11.48
2019-04-03T07:17:56.849Z,11.51
2019-04-03T07:20:25.302Z,11.43
2019-04-03T07:22:53.547Z,11.50
2019-04-03T07:25:21.772Z,11.46
2019-04-03T07:27:50.034Z,11.49
2019-04-03T07:30:18.353Z,11.46
2019-04-03T07:32:46.604Z,11.44
2019-04-03T07:35:15.354Z,11.51
2019-04-03T07:37:43.779Z,11.51
2019-04-03T07:40:12.298Z,11.52
2019-04-03T07:42:41.022Z,11.56
2019-04-03T07:45:09.436Z,11.59
2019-04-03T07:47:37.975Z,11.62
2019-04-03T07:50:10.419Z,11.64
2019-04-03T07:52:37.717Z,11.66
2019-04-03T07:55:06.496Z,11.68
2019-04-03T07:57:36.697Z,11.66
2019-04-03T08:00:08.914Z,11.68
2019-04-03T08:02:37.091Z,11.70
2019-04-03T08:05:07.002Z,11.70
2019-04-03T08:07:35.249Z,11.74
2019-04-03T08:10:05.266Z,11.72
2019-04-03T08:12:35.712Z,11.73
2019-04-03T08:15:04.789Z,11.76
2019-04-03T08:17:33.243Z,11.77
2019-04-03T08:20:01.493Z,11.78
2019-04-03T08:22:32.619Z,11.80
2019-04-03T08:24:59.973Z,11.80
2019-04-03T08:27:28.206Z,11.80
2019-04-03T08:29:56.776Z,11.81
2019-04-03T08:32:25.381Z,11.82
2019-04-03T08:34:53.601Z,11.80
2019-04-03T08:37:29.544Z,11.87
2019-04-03T08:39:52.189Z,11.88
2019-04-03T08:42:20.457Z,11.90
2019-04-03T08:44:49.224Z,11.91
2019-04-03T08:47:17.410Z,11.89
2019-04-03T08:49:45.641Z,11.90
2019-04-03T08:52:14.979Z,11.91
2019-04-03T08:54:43.513Z,11.92
2019-04-03T08:57:11.971Z,11.96
2019-04-03T08:59:40.219Z,11.95
2019-04-03T09:02:12.204Z,12.01
2019-04-03T09:04:38.750Z,12.08
2019-04-03T09:07:07.681Z,12.14
2019-04-03T09:09:36.301Z,12.19
2019-04-03T09:12:06.866Z,12.16
2019-04-03T09:14:35.065Z,12.07
2019-04-03T09:17:03.629Z,12.02
2019-04-03T09:19:32.076Z,11.89
2019-04-03T09:22:00.536Z,11.77
2019-04-03T09:24:29.749Z,11.58
2019-04-03T09:26:58.606Z,11.49
2019-04-03T09:29:26.795Z,11.41
2019-04-03T09:31:56.193Z,11.30
2019-04-03T09:34:25.112Z,11.20
2019-04-03T09:36:53.349Z,11.07
2019-04-03T09:39:21.736Z,10.92
2019-04-03T09:41:50.911Z,10.85
2019-04-03T09:44:19.428Z,10.80
2019-04-03T09:46:47.669Z,10.71
2019-04-03T09:49:15.901Z,10.68
2019-04-03T09:51:44.135Z,10.66
2019-04-03T09:54:12.633Z,10.65
2019-04-03T09:56:56.109Z,10.58
2019-04-03T09:59:10.784Z,10.60
2019-04-03T10:01:39.018Z,10.68
2019-04-03T10:04:07.484Z,10.75
2019-04-03T10:06:35.723Z,10.82
2019-04-03T10:09:05.922Z,10.88
2019-04-03T10:11:34.164Z,10.92
2019-04-03T10:14:02.977Z,11.01
2019-04-03T10:16:34.914Z,11.02
2019-04-03T10:19:01.592Z,11.06
2019-04-03T10:21:32.554Z,11.09
2019-04-03T10:24:00.479Z,11.05
2019-04-03T10:26:30.992Z,11.01
2019-04-03T10:28:59.195Z,10.99
2019-04-03T10:31:27.675Z,10.97
2019-04-03T10:33:55.906Z,10.98
2019-04-03T10:36:24.204Z,10.81
2019-04-03T10:38:52.373Z,10.78
2019-04-03T10:41:20.831Z,10.71
2019-04-03T10:43:49.069Z,10.60
2019-04-03T10:46:18.651Z,10.59
2019-04-03T10:48:47.484Z,10.55
2019-04-03T10:51:16.214Z,10.49
2019-04-03T10:53:44.462Z,10.47
2019-04-03T10:56:12.921Z,10.43
2019-04-03T10:58:43.163Z,10.38
2019-04-03T11:01:11.232Z,10.37
2019-04-03T11:03:39.530Z,10.38
2019-04-03T11:06:07.746Z,10.35
2019-04-03T11:08:36.030Z,10.28
2019-04-03T11:11:05.107Z,10.18
2019-04-03T11:13:34.401Z,10.11
2019-04-03T11:16:02.945Z,10.12
2019-04-03T11:18:31.419Z,10.19
2019-04-03T11:20:59.999Z,10.28
2019-04-03T11:23:38.171Z,10.39
2019-04-03T11:25:58.436Z,10.47
2019-04-03T11:28:26.924Z,10.62
2019-04-03T11:30:56.333Z,10.73
2019-04-03T11:33:25.477Z,10.86
2019-04-03T11:35:54.477Z,10.80
2019-04-03T11:38:27.995Z,11.16
2019-04-03T11:40:52.782Z,11.37
2019-04-03T11:43:21.047Z,11.47
2019-04-03T11:45:49.585Z,11.71
2019-04-03T11:48:17.973Z,11.83
2019-04-03T11:50:46.816Z,12.00
2019-04-03T11:53:15.003Z,12.14
2019-04-03T11:55:43.287Z,12.27
2019-04-03T11:58:11.703Z,12.39
2019-04-03T12:00:41.580Z,12.51
2019-04-03T12:03:11.343Z,12.66
2019-04-03T12:05:39.773Z,12.79
2019-04-03T12:08:08.551Z,12.88
2019-04-03T12:10:37.618Z,12.86
2019-04-03T12:13:05.923Z,12.76
2019-04-03T12:15:34.833Z,12.72
2019-04-03T12:18:03.192Z,12.52
2019-04-03T12:20:31.710Z,12.47
2019-04-03T12:22:59.937Z,12.37
2019-04-03T12:25:28.507Z,12.44
2019-04-03T12:27:56.860Z,12.40
2019-04-03T12:30:26.829Z,12.50
2019-04-03T12:32:55.689Z,12.58
2019-04-03T12:35:24.043Z,12.64
2019-04-03T12:37:52.347Z,12.69
2019-04-03T12:40:20.817Z,12.71
2019-04-03T12:42:49.134Z,12.69
2019-04-03T12:45:18.634Z,12.59
2019-04-03T12:47:47.174Z,12.53
2019-04-03T12:50:15.578Z,12.47
2019-04-03T12:52:44.931Z,12.36
2019-04-03T12:55:14.495Z,12.32
2019-04-03T12:57:43.024Z,12.35
2019-04-03T13:00:13.088Z,12.43
2019-04-03T13:02:42.393Z,12.52
2019-04-03T13:05:11.057Z,12.63
2019-04-03T13:07:39.395Z,12.63
2019-04-03T13:10:08.877Z,12.71
2019-04-03T13:12:37.323Z,12.73
2019-04-03T13:15:09.263Z,12.69
2019-04-03T13:17:38.203Z,12.71
2019-04-03T13:20:07.153Z,12.65
2019-04-03T13:22:36.065Z,12.59
2019-04-03T13:25:06.447Z,12.48
2019-04-03T13:27:35.018Z,12.51
2019-04-03T13:30:05.628Z,12.48
2019-04-03T13:32:34.392Z,12.45
2019-04-03T13:35:04.616Z,12.37
2019-04-03T13:37:33.037Z,12.36
2019-04-03T13:40:01.597Z,12.39
2019-04-03T13:42:31.697Z,12.49
2019-04-03T13:45:00.407Z,12.62
2019-04-03T13:47:28.640Z,12.63
2019-04-03T13:49:57.404Z,12.79
2019-04-03T13:52:37.797Z,12.82
2019-04-03T13:54:58.239Z,12.74
2019-04-03T13:57:26.089Z,12.65
2019-04-03T13:59:59.588Z,12.63
2019-04-03T14:02:25.121Z,12.59
2019-04-03T14:04:54.685Z,12.62
2019-04-03T14:07:23.503Z,12.54
2019-04-03T14:09:54.769Z,12.33
2019-04-03T14:12:22.333Z,12.27
2019-04-03T14:14:50.627Z,12.25
2019-04-03T14:17:18.899Z,12.18
2019-04-03T14:19:50.584Z,12.10
2019-04-03T14:22:17.739Z,12.19
2019-04-03T14:24:50.968Z,12.29
2019-04-03T14:27:21.836Z,12.32
2019-04-03T14:29:46.296Z,12.41
2019-04-03T14:32:14.799Z,12.45
2019-04-03T14:34:43.126Z,12.36
2019-04-03T14:37:12.304Z,12.37
2019-04-03T14:39:41.821Z,12.41
2019-04-03T14:42:10.503Z,12.39
2019-04-03T14:44:40.986Z,12.39
2019-04-03T14:47:09.184Z,12.35
2019-04-03T14:49:37.411Z,12.38
2019-04-03T14:52:05.660Z,12.39
2019-04-03T14:54:33.986Z,12.36
2019-04-03T14:57:11.110Z,12.37
2019-04-03T14:59:34.681Z,12.30
2019-04-03T15:02:02.601Z,12.23
2019-04-03T15:04:36.063Z,12.22
2019-04-03T15:07:05.056Z,12.20
2019-04-03T15:09:31.997Z,12.14
2019-04-03T15:12:00.647Z,12.14
2019-04-03T15:14:29.588Z,12.12
2019-04-03T15:16:58.051Z,12.13
2019-04-03T15:19:26.289Z,12.10
2019-04-03T15:21:56.760Z,11.87
2019-04-03T15:24:24.708Z,11.83
2019-04-03T15:26:54.020Z,11.66
2019-04-03T15:29:23.027Z,11.50
2019-04-03T15:31:51.556Z,11.37
2019-04-03T15:34:19.802Z,11.34
2019-04-03T15:36:50.584Z,11.31
2019-04-03T15:39:18.351Z,11.27
2019-04-03T15:41:46.534Z,11.26
2019-04-03T15:44:15.235Z,11.23
2019-04-03T15:46:43.763Z,11.18
2019-04-03T15:49:12.119Z,11.04
2019-04-03T15:51:40.509Z,11.06
2019-04-03T15:54:09.057Z,11.06
2019-04-03T15:56:37.633Z,10.98
2019-04-03T15:59:06.241Z,10.82
2019-04-03T16:01:34.909Z,10.79
2019-04-03T16:04:03.441Z,10.67
2019-04-03T16:06:33.242Z,10.52
2019-04-03T16:09:01.615Z,10.38
2019-04-03T16:11:30.812Z,10.18
2019-04-03T16:14:00.233Z,10.16
2019-04-03T16:16:29.369Z,9.96
2019-04-03T16:18:58.238Z,9.81
2019-04-03T16:21:29.395Z,9.57
2019-04-03T16:23:56.422Z,9.37
2019-04-03T16:26:24.998Z,9.26
2019-04-03T16:28:56.251Z,9.10
2019-04-03T16:31:23.720Z,8.96
2019-04-03T16:33:52.355Z,8.92
2019-04-03T16:36:20.852Z,8.85
2019-04-03T16:38:49.469Z,8.75
2019-04-03T16:41:17.910Z,8.70
2019-04-03T16:43:46.110Z,8.67
2019-04-03T16:46:14.575Z,8.63
2019-04-03T16:48:43.303Z,8.61
2019-04-03T16:51:11.543Z,8.59
2019-04-03T16:53:40.143Z,8.57
2019-04-03T16:56:08.400Z,8.55
2019-04-03T16:58:37.134Z,8.52
2019-04-03T17:01:05.401Z,8.49
2019-04-03T17:03:33.833Z,8.51
2019-04-03T17:06:02.150Z,8.44
2019-04-03T17:08:30.361Z,8.42
2019-04-03T17:10:58.937Z,8.38
2019-04-03T17:13:27.164Z,8.43
2019-04-03T17:15:56.083Z,8.44
2019-04-03T17:18:24.402Z,8.52
2019-04-03T17:20:55.163Z,8.54
2019-04-03T17:23:23.323Z,8.58
2019-04-03T17:25:51.821Z,8.61
2019-04-03T17:28:20.018Z,8.60
2019-04-03T17:30:51.325Z,8.55
2019-04-03T17:33:18.198Z,8.52
2019-04-03T17:35:48.292Z,8.50
2019-04-03T17:38:16.645Z,8.50
2019-04-03T17:40:44.887Z,8.50
2019-04-03T17:43:13.915Z,8.50
2019-04-03T17:45:43.103Z,8.46
2019-04-03T17:48:11.339Z,8.41
2019-04-03T17:50:39.566Z,8.38
2019-04-03T17:53:07.797Z,8.35
2019-04-03T17:55:36.261Z,8.57
2019-04-03T17:58:04.526Z,8.54
2019-04-03T18:00:32.750Z,8.55
2019-04-03T18:03:01.211Z,8.50
2019-04-03T18:05:29.667Z,8.48
2019-04-03T18:07:58.898Z,8.44
2019-04-03T18:10:27.601Z,8.40
2019-04-03T18:12:57.629Z,8.30
2019-04-03T18:15:27.545Z,8.31
2019-04-03T18:17:55.842Z,8.20
2019-04-03T18:20:25.162Z,8.22
2019-04-03T18:22:53.645Z,8.21
2019-04-03T18:25:21.873Z,8.20
2019-04-03T18:27:50.119Z,8.17
2019-04-03T18:30:20.229Z,8.15
2019-04-03T18:32:48.465Z,8.16
2019-04-03T18:35:16.871Z,8.19
2019-04-03T18:37:45.352Z,8.24
2019-04-03T18:40:15.182Z,8.26
2019-04-03T18:42:43.551Z,8.32
2019-04-03T18:45:24.539Z,8.33
2019-04-03T18:47:45.905Z,8.30
2019-04-03T18:50:12.538Z,8.31
2019-04-03T18:52:40.738Z,8.35
2019-04-03T18:55:09.150Z,8.36
2019-04-03T18:57:37.392Z,8.36
2019-04-03T19:00:09.687Z,8.30
2019-04-03T19:02:37.995Z,8.27
2019-04-03T19:05:13.554Z,8.22
2019-04-03T19:07:39.513Z,8.17
2019-04-03T19:10:08.246Z,8.11
2019-04-03T19:12:36.561Z,8.06
2019-04-03T19:15:06.340Z,8.06
2019-04-03T19:17:34.572Z,7.97
2019-04-03T19:20:10.366Z,7.94
2019-04-03T19:22:32.767Z,7.93
2019-04-03T19:25:01.006Z,7.90
2019-04-03T19:27:29.232Z,7.86
2019-04-03T19:29:57.474Z,7.66
2019-04-03T19:32:25.731Z,7.61
2019-04-03T19:34:54.003Z,7.59
2019-04-03T19:37:22.415Z,7.52
2019-04-03T19:39:50.673Z,7.51
2019-04-03T19:42:18.889Z,7.57
2019-04-03T19:44:49.111Z,7.60
2019-04-03T19:47:17.087Z,7.62
2019-04-03T19:49:47.922Z,7.63
2019-04-03T19:52:15.581Z,7.63
2019-04-03T19:54:43.828Z,7.63
2019-04-03T19:57:12.053Z,7.65
2019-04-03T19:59:40.618Z,7.60
2019-04-03T20:02:09.621Z,7.57
2019-04-03T20:04:38.380Z,7.56
2019-04-03T20:07:06.885Z,7.58
2019-04-03T20:09:35.364Z,7.56
2019-04-03T20:12:06.804Z,7.54
2019-04-03T20:14:33.564Z,7.57
2019-04-03T20:17:02.040Z,7.61
2019-04-03T20:19:30.277Z,7.64
2019-04-03T20:21:58.514Z,7.64
2019-04-03T20:24:27.087Z,7.63
2019-04-03T20:26:55.307Z,7.60
2019-04-03T20:29:23.534Z,7.63
2019-04-03T20:31:52.010Z,7.64
2019-04-03T20:34:20.259Z,7.65
2019-04-03T20:36:51.018Z,7.64
2019-04-03T20:39:18.722Z,7.65
2019-04-03T20:41:47.273Z,7.60
2019-04-03T20:44:17.460Z,7.58
2019-04-03T20:46:45.920Z,7.55
2019-04-03T20:49:14.148Z,7.53
2019-04-03T20:51:42.395Z,7.52
2019-04-03T20:54:11.889Z,7.51
2019-04-03T20:56:40.244Z,7.48
2019-04-03T20:59:11.241Z,7.40
2019-04-03T21:01:38.433Z,7.39
2019-04-03T21:04:06.668Z,7.37
2019-04-03T21:06:37.093Z,7.35
2019-04-03T21:09:06.755Z,7.33
2019-04-03T21:11:35.069Z,7.35
2019-04-03T21:14:05.657Z,7.39
2019-04-03T21:16:33.658Z,7.44
2019-04-03T21:19:02.122Z,7.46
2019-04-03T21:21:30.362Z,7.47
2019-04-03T21:23:58.819Z,7.48
2019-04-03T21:26:27.056Z,7.46
2019-04-03T21:28:55.288Z,7.44
2019-04-03T21:31:23.971Z,7.37
2019-04-03T21:33:53.477Z,7.37
2019-04-03T21:36:21.713Z,7.34
2019-04-03T21:38:49.995Z,7.29
2019-04-03T21:41:20.478Z,7.28
2019-04-03T21:43:48.189Z,7.23
2019-04-03T21:46:16.665Z,7.19
2019-04-03T21:48:45.272Z,7.18
2019-04-03T21:51:13.511Z,7.08
2019-04-03T21:53:41.974Z,7.14
2019-04-03T21:56:10.217Z,7.11
2019-04-03T21:58:39.754Z,7.12
2019-04-03T22:01:14.775Z,7.12
2019-04-03T22:03:43.418Z,7.12
2019-04-03T22:06:11.652Z,7.12
2019-04-03T22:08:39.897Z,7.13
2019-04-03T22:11:08.136Z,7.17
2019-04-03T22:13:38.240Z,7.21
2019-04-03T22:16:06.395Z,7.23
2019-04-03T22:18:34.574Z,7.26
2019-04-03T22:21:02.811Z,7.28
2019-04-03T22:23:31.056Z,7.32
2019-04-03T22:25:59.289Z,7.31
2019-04-03T22:28:27.536Z,7.30
2019-04-03T22:30:55.760Z,7.28
2019-04-03T22:33:24.239Z,7.29
2019-04-03T22:35:54.041Z,7.28
2019-04-03T22:38:22.277Z,7.29
2019-04-03T22:40:50.582Z,7.29
2019-04-03T22:43:18.828Z,7.30
2019-04-03T22:45:47.290Z,7.30
2019-04-03T22:48:15.526Z,7.29
2019-04-03T22:50:43.758Z,7.28
2019-04-03T22:53:12.001Z,7.32
2019-04-03T22:55:40.233Z,7.31
2019-04-03T22:58:08.470Z,7.34
2019-04-03T23:00:36.934Z,7.33
2019-04-03T23:03:05.245Z,7.29
2019-04-03T23:05:34.013Z,7.25
2019-04-03T23:08:02.315Z,7.28
2019-04-03T23:10:30.727Z,7.30
2019-04-03T23:12:59.282Z,7.32
2019-04-03T23:15:27.745Z,7.30
2019-04-03T23:17:55.988Z,7.33
2019-04-03T23:20:24.243Z,7.33
2019-04-03T23:22:52.462Z,7.33
2019-04-03T23:25:20.713Z,7.31
2019-04-03T23:27:49.393Z,7.26
2019-04-03T23:30:17.702Z,7.29
2019-04-03T23:32:46.493Z,7.29
2019-04-03T23:35:14.776Z,7.28
2019-04-03T23:37:43.008Z,7.26
2019-04-03T23:40:11.800Z,7.25
2019-04-03T23:42:40.040Z,7.22
2019-04-03T23:45:09.056Z,7.20
2019-04-03T23:47:37.277Z,7.18
2019-04-03T23:50:07.061Z,7.16
2019-04-03T23:52:35.297Z,7.12
2019-04-03T23:55:05.338Z,7.10
2019-04-03T23:57:33.842Z,7.08
